sensor_id;sensor_type;location;lat;lon;timestamp;pressure;altitude;pressure_sealevel;temperature;humidity
19811;BME280;10065;49.632;8.346;2022-11-11T00:01:10;102081.63;;;9.97;78.97
19811;BME280;10065;49.632;8.346;2022-11-11T00:03:38;102097.09;;;10.03;78.61
19811;BME280;10065;49.632;8.346;2022-11-11T00:06:09;102088.19;;;10.04;78.48
19811;BME280;10065;49.632;8.346;2022-11-11T00:08:38;102086.63;;;10.02;78.62
19811;BME280;10065;49.632;8.346;2022-11-11T00:11:09;102087.69;;;9.99;78.87
19811;BME280;10065;49.632;8.346;2022-11-11T00:13:38;102087.03;;;10.08;78.17
19811;BME280;10065;49.632;8.346;2022-11-11T00:16:07;102093.81;;;10.12;78.28
19811;BME280;10065;49.632;8.346;2022-11-11T00:18:36;102085.75;;;10.14;77.61
19811;BME280;10065;49.632;8.346;2022-11-11T00:21:24;102075.50;;;10.09;78.13
19811;BME280;10065;49.632;8.346;2022-11-11T00:24:20;102088.50;;;10.12;78.12
19811;BME280;10065;49.632;8.346;2022-11-11T00:27:06;102088.66;;;10.24;77.31
19811;BME280;10065;49.632;8.346;2022-11-11T00:29:35;102093.75;;;10.27;76.90
19811;BME280;10065;49.632;8.346;2022-11-11T00:32:04;102096.47;;;10.12;77.14
19811;BME280;10065;49.632;8.346;2022-11-11T00:34:51;102100.31;;;10.08;77.09
19811;BME280;10065;49.632;8.346;2022-11-11T00:37:36;102102.94;;;10.08;76.84
19811;BME280;10065;49.632;8.346;2022-11-11T00:40:06;102103.25;;;10.04;76.75
19811;BME280;10065;49.632;8.346;2022-11-11T00:42:34;102104.84;;;9.94;77.20
19811;BME280;10065;49.632;8.346;2022-11-11T00:45:03;102102.59;;;9.88;77.43
19811;BME280;10065;49.632;8.346;2022-11-11T00:47:31;102108.22;;;9.83;77.26
19811;BME280;10065;49.632;8.346;2022-11-11T00:50:18;102108.31;;;9.81;77.21
19811;BME280;10065;49.632;8.346;2022-11-11T00:53:09;102105.63;;;9.69;77.62
19811;BME280;10065;49.632;8.346;2022-11-11T00:55:38;102100.56;;;9.66;77.64
19811;BME280;10065;49.632;8.346;2022-11-11T00:58:06;102099.81;;;9.64;77.58
19811;BME280;10065;49.632;8.346;2022-11-11T01:00:34;102115.81;;;9.62;77.30
19811;BME280;10065;49.632;8.346;2022-11-11T01:03:02;102116.31;;;9.55;77.41
19811;BME280;10065;49.632;8.346;2022-11-11T01:05:30;102114.41;;;9.57;77.64
19811;BME280;10065;49.632;8.346;2022-11-11T01:07:58;102106.38;;;9.71;77.38
19811;BME280;10065;49.632;8.346;2022-11-11T01:10:25;102116.59;;;9.90;76.14
19811;BME280;10065;49.632;8.346;2022-11-11T01:13:16;102117.25;;;9.93;75.12
19811;BME280;10065;49.632;8.346;2022-11-11T01:15:46;102112.34;;;9.74;76.13
19811;BME280;10065;49.632;8.346;2022-11-11T01:18:16;102117.75;;;9.73;76.29
19811;BME280;10065;49.632;8.346;2022-11-11T01:20:45;102121.88;;;9.77;76.22
19811;BME280;10065;49.632;8.346;2022-11-11T01:23:13;102120.81;;;9.79;75.94
19811;BME280;10065;49.632;8.346;2022-11-11T01:25:41;102117.84;;;9.71;76.05
19811;BME280;10065;49.632;8.346;2022-11-11T01:28:09;102130.66;;;9.65;76.16
19811;BME280;10065;49.632;8.346;2022-11-11T01:30:38;102129.38;;;9.58;76.59
19811;BME280;10065;49.632;8.346;2022-11-11T01:33:09;102132.41;;;9.52;76.64
19811;BME280;10065;49.632;8.346;2022-11-11T01:35:38;102120.75;;;9.54;76.79
19811;BME280;10065;49.632;8.346;2022-11-11T01:38:06;102122.91;;;9.62;76.44
19811;BME280;10065;49.632;8.346;2022-11-11T01:40:41;102130.56;;;9.66;76.03
19811;BME280;10065;49.632;8.346;2022-11-11T01:43:20;102126.06;;;9.54;76.73
19811;BME280;10065;49.632;8.346;2022-11-11T01:45:54;102116.50;;;9.52;77.04
19811;BME280;10065;49.632;8.346;2022-11-11T01:48:28;102115.78;;;9.50;77.08
19811;BME280;10065;49.632;8.346;2022-11-11T01:51:20;102110.50;;;9.50;77.03
19811;BME280;10065;49.632;8.346;2022-11-11T01:53:53;102115.22;;;9.44;77.30
19811;BME280;10065;49.632;8.346;2022-11-11T01:56:23;102102.13;;;9.56;77.03
19811;BME280;10065;49.632;8.346;2022-11-11T01:58:52;102116.84;;;9.60;76.46
19811;BME280;10065;49.632;8.346;2022-11-11T02:01:23;102112.72;;;9.56;76.28
19811;BME280;10065;49.632;8.346;2022-11-11T02:03:53;102114.94;;;9.62;76.04
19811;BME280;10065;49.632;8.346;2022-11-11T02:06:38;102110.94;;;9.69;75.89
19811;BME280;10065;49.632;8.346;2022-11-11T02:09:08;102116.13;;;9.58;75.89
19811;BME280;10065;49.632;8.346;2022-11-11T02:11:38;102109.72;;;9.48;76.50
19811;BME280;10065;49.632;8.346;2022-11-11T02:14:21;102115.03;;;9.48;76.47
19811;BME280;10065;49.632;8.346;2022-11-11T02:17:09;102122.66;;;9.52;76.56
19811;BME280;10065;49.632;8.346;2022-11-11T02:19:44;102108.06;;;9.59;75.78
19811;BME280;10065;49.632;8.346;2022-11-11T02:22:17;102104.78;;;9.56;75.46
19811;BME280;10065;49.632;8.346;2022-11-11T02:24:48;102101.91;;;9.59;75.22
19811;BME280;10065;49.632;8.346;2022-11-11T02:27:18;102099.25;;;9.59;74.88
19811;BME280;10065;49.632;8.346;2022-11-11T02:29:48;102091.88;;;9.64;74.65
19811;BME280;10065;49.632;8.346;2022-11-11T02:32:17;102092.28;;;9.58;74.38
19811;BME280;10065;49.632;8.346;2022-11-11T02:34:45;102093.09;;;9.46;75.10
19811;BME280;10065;49.632;8.346;2022-11-11T02:37:20;102102.31;;;9.53;75.19
19811;BME280;10065;49.632;8.346;2022-11-11T02:39:52;102104.81;;;9.41;75.30
19811;BME280;10065;49.632;8.346;2022-11-11T02:42:39;102105.66;;;9.29;75.84
19811;BME280;10065;49.632;8.346;2022-11-11T02:45:10;102104.34;;;9.22;76.36
19811;BME280;10065;49.632;8.346;2022-11-11T02:47:38;102114.09;;;9.22;76.28
19811;BME280;10065;49.632;8.346;2022-11-11T02:50:06;102120.78;;;9.27;76.09
19811;BME280;10065;49.632;8.346;2022-11-11T02:52:34;102125.78;;;9.32;75.58
19811;BME280;10065;49.632;8.346;2022-11-11T02:55:04;102119.06;;;9.26;76.08
19811;BME280;10065;49.632;8.346;2022-11-11T02:57:32;102115.78;;;9.23;75.39
19811;BME280;10065;49.632;8.346;2022-11-11T03:00:00;102116.66;;;9.23;75.38
19811;BME280;10065;49.632;8.346;2022-11-11T03:02:28;102120.59;;;9.30;74.73
19811;BME280;10065;49.632;8.346;2022-11-11T03:04:56;102116.78;;;9.34;74.50
19811;BME280;10065;49.632;8.346;2022-11-11T03:07:24;102134.41;;;9.21;75.45
19811;BME280;10065;49.632;8.346;2022-11-11T03:09:52;102127.41;;;9.20;75.44
19811;BME280;10065;49.632;8.346;2022-11-11T03:12:25;102139.50;;;9.24;75.37
19811;BME280;10065;49.632;8.346;2022-11-11T03:14:52;102141.94;;;9.27;75.42
19811;BME280;10065;49.632;8.346;2022-11-11T03:17:21;102143.41;;;9.19;75.72
19811;BME280;10065;49.632;8.346;2022-11-11T03:20:07;102147.06;;;9.16;76.12
19811;BME280;10065;49.632;8.346;2022-11-11T03:23:00;102149.47;;;9.33;75.01
19811;BME280;10065;49.632;8.346;2022-11-11T03:25:28;102152.59;;;9.40;74.64
19811;BME280;10065;49.632;8.346;2022-11-11T03:28:09;102154.34;;;9.27;74.97
19811;BME280;10065;49.632;8.346;2022-11-11T03:30:37;102151.81;;;9.11;75.54
19811;BME280;10065;49.632;8.346;2022-11-11T03:33:06;102151.72;;;9.13;75.65
19811;BME280;10065;49.632;8.346;2022-11-11T03:35:34;102150.66;;;9.15;75.65
19811;BME280;10065;49.632;8.346;2022-11-11T03:38:02;102156.69;;;9.31;74.82
19811;BME280;10065;49.632;8.346;2022-11-11T03:40:45;102150.81;;;9.40;74.32
19811;BME280;10065;49.632;8.346;2022-11-11T03:43:16;102159.69;;;9.39;74.65
19811;BME280;10065;49.632;8.346;2022-11-11T03:45:44;102156.47;;;9.34;74.57
19811;BME280;10065;49.632;8.346;2022-11-11T03:48:12;102156.44;;;9.22;74.77
19811;BME280;10065;49.632;8.346;2022-11-11T03:50:41;102164.88;;;9.14;74.97
19811;BME280;10065;49.632;8.346;2022-11-11T03:53:09;102168.66;;;9.10;75.17
19811;BME280;10065;49.632;8.346;2022-11-11T03:55:36;102167.13;;;9.06;75.11
19811;BME280;10065;49.632;8.346;2022-11-11T03:58:04;102172.06;;;8.98;75.23
19811;BME280;10065;49.632;8.346;2022-11-11T04:00:33;102176.03;;;8.91;75.70
19811;BME280;10065;49.632;8.346;2022-11-11T04:03:03;102178.31;;;8.83;75.94
19811;BME280;10065;49.632;8.346;2022-11-11T04:05:49;102183.06;;;8.78;76.23
19811;BME280;10065;49.632;8.346;2022-11-11T04:08:35;102190.06;;;8.79;75.87
19811;BME280;10065;49.632;8.346;2022-11-11T04:11:23;102195.13;;;8.82;75.75
19811;BME280;10065;49.632;8.346;2022-11-11T04:13:52;102197.78;;;8.96;75.02
19811;BME280;10065;49.632;8.346;2022-11-11T04:16:39;102202.28;;;9.08;74.03
19811;BME280;10065;49.632;8.346;2022-11-11T04:19:07;102207.22;;;9.14;73.52
19811;BME280;10065;49.632;8.346;2022-11-11T04:21:48;102199.28;;;9.00;74.02
19811;BME280;10065;49.632;8.346;2022-11-11T04:24:17;102200.25;;;8.85;74.89
19811;BME280;10065;49.632;8.346;2022-11-11T04:27:05;102206.78;;;8.79;74.96
19811;BME280;10065;49.632;8.346;2022-11-11T04:29:33;102207.03;;;8.75;75.27
19811;BME280;10065;49.632;8.346;2022-11-11T04:32:02;102196.25;;;8.63;75.76
19811;BME280;10065;49.632;8.346;2022-11-11T04:34:49;102207.06;;;8.60;76.52
19811;BME280;10065;49.632;8.346;2022-11-11T04:37:18;102205.53;;;8.56;76.75
19811;BME280;10065;49.632;8.346;2022-11-11T04:39:46;102204.97;;;8.65;76.47
19811;BME280;10065;49.632;8.346;2022-11-11T04:42:45;102204.41;;;8.75;75.63
19811;BME280;10065;49.632;8.346;2022-11-11T04:45:13;102201.09;;;8.85;75.46
19811;BME280;10065;49.632;8.346;2022-11-11T04:48:04;102199.28;;;8.72;75.74
19811;BME280;10065;49.632;8.346;2022-11-11T04:50:34;102209.31;;;8.66;76.17
19811;BME280;10065;49.632;8.346;2022-11-11T04:53:03;102211.50;;;8.60;76.51
19811;BME280;10065;49.632;8.346;2022-11-11T04:55:31;102204.59;;;8.57;76.48
19811;BME280;10065;49.632;8.346;2022-11-11T04:58:19;102197.03;;;8.51;76.55
19811;BME280;10065;49.632;8.346;2022-11-11T05:00:47;102204.13;;;8.51;76.69
19811;BME280;10065;49.632;8.346;2022-11-11T05:03:17;102195.31;;;8.50;76.55
19811;BME280;10065;49.632;8.346;2022-11-11T05:05:47;102201.16;;;8.55;76.46
19811;BME280;10065;49.632;8.346;2022-11-11T05:08:34;102212.34;;;8.60;75.98
19811;BME280;10065;49.632;8.346;2022-11-11T05:11:21;102211.56;;;8.58;75.71
19811;BME280;10065;49.632;8.346;2022-11-11T05:13:50;102210.81;;;8.56;75.95
19811;BME280;10065;49.632;8.346;2022-11-11T05:16:39;102212.91;;;8.65;75.60
19811;BME280;10065;49.632;8.346;2022-11-11T05:19:26;102198.94;;;8.78;75.12
19811;BME280;10065;49.632;8.346;2022-11-11T05:22:15;102197.00;;;8.80;75.00
19811;BME280;10065;49.632;8.346;2022-11-11T05:24:43;102199.09;;;8.89;74.85
19811;BME280;10065;49.632;8.346;2022-11-11T05:27:29;102197.97;;;8.93;74.95
19811;BME280;10065;49.632;8.346;2022-11-11T05:29:57;102201.38;;;8.95;76.04
19811;BME280;10065;49.632;8.346;2022-11-11T05:32:24;102202.50;;;9.05;75.73
19811;BME280;10065;49.632;8.346;2022-11-11T05:34:54;102208.06;;;9.15;75.53
19811;BME280;10065;49.632;8.346;2022-11-11T05:37:24;102207.41;;;9.11;75.98
19811;BME280;10065;49.632;8.346;2022-11-11T05:39:51;102205.25;;;9.03;76.79
19811;BME280;10065;49.632;8.346;2022-11-11T05:42:19;102211.47;;;9.02;77.19
19811;BME280;10065;49.632;8.346;2022-11-11T05:44:47;102216.88;;;9.01;77.42
19811;BME280;10065;49.632;8.346;2022-11-11T05:47:14;102213.47;;;8.99;77.84
19811;BME280;10065;49.632;8.346;2022-11-11T05:49:42;102219.97;;;9.07;76.86
19811;BME280;10065;49.632;8.346;2022-11-11T05:52:15;102222.13;;;9.15;76.35
19811;BME280;10065;49.632;8.346;2022-11-11T05:54:43;102221.31;;;9.15;76.19
19811;BME280;10065;49.632;8.346;2022-11-11T05:57:11;102218.38;;;9.19;75.78
19811;BME280;10065;49.632;8.346;2022-11-11T05:59:39;102219.31;;;9.18;75.75
19811;BME280;10065;49.632;8.346;2022-11-11T06:02:07;102228.41;;;9.14;76.49
19811;BME280;10065;49.632;8.346;2022-11-11T06:04:35;102221.75;;;9.07;76.70
19811;BME280;10065;49.632;8.346;2022-11-11T06:07:03;102225.56;;;9.03;76.87
19811;BME280;10065;49.632;8.346;2022-11-11T06:09:32;102220.44;;;9.00;76.91
19811;BME280;10065;49.632;8.346;2022-11-11T06:11:59;102229.88;;;9.18;76.60
19811;BME280;10065;49.632;8.346;2022-11-11T06:14:27;102233.47;;;9.17;76.52
19811;BME280;10065;49.632;8.346;2022-11-11T06:16:55;102243.88;;;9.06;77.41
19811;BME280;10065;49.632;8.346;2022-11-11T06:19:23;102236.78;;;9.06;77.81
19811;BME280;10065;49.632;8.346;2022-11-11T06:21:50;102245.13;;;9.15;77.85
19811;BME280;10065;49.632;8.346;2022-11-11T06:24:26;102247.19;;;9.10;77.02
19811;BME280;10065;49.632;8.346;2022-11-11T06:26:55;102247.59;;;9.03;77.49
19811;BME280;10065;49.632;8.346;2022-11-11T06:29:21;102248.63;;;9.01;77.83
19811;BME280;10065;49.632;8.346;2022-11-11T06:31:49;102258.81;;;9.07;78.26
19811;BME280;10065;49.632;8.346;2022-11-11T06:34:17;102260.16;;;9.14;77.29
19811;BME280;10065;49.632;8.346;2022-11-11T06:36:45;102267.06;;;9.02;77.14
19811;BME280;10065;49.632;8.346;2022-11-11T06:39:12;102268.00;;;8.87;77.58
19811;BME280;10065;49.632;8.346;2022-11-11T06:41:40;102264.38;;;8.74;78.29
19811;BME280;10065;49.632;8.346;2022-11-11T06:44:09;102268.34;;;8.81;79.01
19811;BME280;10065;49.632;8.346;2022-11-11T06:46:37;102269.97;;;8.98;77.65
19811;BME280;10065;49.632;8.346;2022-11-11T06:49:04;102272.06;;;8.79;78.63
19811;BME280;10065;49.632;8.346;2022-11-11T06:51:32;102289.41;;;8.68;80.26
19811;BME280;10065;49.632;8.346;2022-11-11T06:53:59;102287.72;;;8.67;81.13
19811;BME280;10065;49.632;8.346;2022-11-11T06:56:27;102302.66;;;8.68;82.00
19811;BME280;10065;49.632;8.346;2022-11-11T06:58:55;102288.88;;;8.78;82.13
19811;BME280;10065;49.632;8.346;2022-11-11T07:01:24;102297.91;;;8.74;82.49
19811;BME280;10065;49.632;8.346;2022-11-11T07:03:51;102305.78;;;8.75;83.54
19811;BME280;10065;49.632;8.346;2022-11-11T07:06:19;102304.19;;;8.87;83.16
19811;BME280;10065;49.632;8.346;2022-11-11T07:08:47;102307.31;;;9.07;82.42
19811;BME280;10065;49.632;8.346;2022-11-11T07:11:14;102302.50;;;9.14;81.97
19811;BME280;10065;49.632;8.346;2022-11-11T07:13:44;102296.06;;;9.04;82.96
19811;BME280;10065;49.632;8.346;2022-11-11T07:16:12;102303.34;;;9.00;83.59
19811;BME280;10065;49.632;8.346;2022-11-11T07:18:41;102309.19;;;8.91;85.08
19811;BME280;10065;49.632;8.346;2022-11-11T07:21:09;102309.28;;;8.90;85.72
19811;BME280;10065;49.632;8.346;2022-11-11T07:23:36;102301.06;;;9.09;85.27
19811;BME280;10065;49.632;8.346;2022-11-11T07:26:10;102306.56;;;9.20;84.23
19811;BME280;10065;49.632;8.346;2022-11-11T07:28:38;102307.97;;;9.25;84.17
19811;BME280;10065;49.632;8.346;2022-11-11T07:31:05;102305.81;;;9.18;84.89
19811;BME280;10065;49.632;8.346;2022-11-11T07:33:33;102303.81;;;9.07;86.33
19811;BME280;10065;49.632;8.346;2022-11-11T07:36:02;102303.44;;;8.99;87.13
19811;BME280;10065;49.632;8.346;2022-11-11T07:38:30;102311.06;;;8.89;88.44
19811;BME280;10065;49.632;8.346;2022-11-11T07:40:58;102308.44;;;8.89;89.84
19811;BME280;10065;49.632;8.346;2022-11-11T07:43:25;102317.22;;;8.90;90.09
19811;BME280;10065;49.632;8.346;2022-11-11T07:45:53;102319.00;;;8.89;90.83
19811;BME280;10065;49.632;8.346;2022-11-11T07:48:21;102315.25;;;8.93;90.22
19811;BME280;10065;49.632;8.346;2022-11-11T07:50:50;102310.97;;;8.91;90.13
19811;BME280;10065;49.632;8.346;2022-11-11T07:53:19;102314.22;;;8.96;89.74
19811;BME280;10065;49.632;8.346;2022-11-11T07:55:48;102321.78;;;8.88;89.53
19811;BME280;10065;49.632;8.346;2022-11-11T07:58:16;102325.44;;;8.85;90.68
19811;BME280;10065;49.632;8.346;2022-11-11T08:00:43;102319.22;;;8.86;90.09
19811;BME280;10065;49.632;8.346;2022-11-11T08:03:11;102321.47;;;8.78;90.25
19811;BME280;10065;49.632;8.346;2022-11-11T08:05:39;102315.66;;;8.72;91.19
19811;BME280;10065;49.632;8.346;2022-11-11T08:08:07;102318.16;;;8.89;91.76
19811;BME280;10065;49.632;8.346;2022-11-11T08:10:37;102307.88;;;8.98;90.32
19811;BME280;10065;49.632;8.346;2022-11-11T08:13:05;102312.50;;;8.95;90.81
19811;BME280;10065;49.632;8.346;2022-11-11T08:15:50;102318.97;;;9.05;90.89
19811;BME280;10065;49.632;8.346;2022-11-11T08:18:18;102311.00;;;9.19;90.24
19811;BME280;10065;49.632;8.346;2022-11-11T08:20:46;102313.75;;;9.18;89.67
19811;BME280;10065;49.632;8.346;2022-11-11T08:23:20;102315.84;;;9.13;89.41
19811;BME280;10065;49.632;8.346;2022-11-11T08:26:19;102314.00;;;8.99;90.37
19811;BME280;10065;49.632;8.346;2022-11-11T08:28:55;102327.84;;;9.04;91.11
19811;BME280;10065;49.632;8.346;2022-11-11T08:31:22;102326.03;;;9.19;90.45
19811;BME280;10065;49.632;8.346;2022-11-11T08:33:50;102318.56;;;9.25;89.58
19811;BME280;10065;49.632;8.346;2022-11-11T08:36:18;102318.28;;;9.30;87.92
19811;BME280;10065;49.632;8.346;2022-11-11T08:38:47;102319.31;;;9.27;87.18
19811;BME280;10065;49.632;8.346;2022-11-11T08:41:14;102331.44;;;9.31;87.66
19811;BME280;10065;49.632;8.346;2022-11-11T08:43:43;102332.47;;;9.29;87.82
19811;BME280;10065;49.632;8.346;2022-11-11T08:46:11;102329.53;;;9.33;87.85
19811;BME280;10065;49.632;8.346;2022-11-11T08:48:39;102336.31;;;9.52;87.07
19811;BME280;10065;49.632;8.346;2022-11-11T08:51:06;102337.75;;;9.57;86.09
19811;BME280;10065;49.632;8.346;2022-11-11T08:53:34;102337.66;;;9.44;86.27
19811;BME280;10065;49.632;8.346;2022-11-11T08:56:02;102339.19;;;9.49;86.61
19811;BME280;10065;49.632;8.346;2022-11-11T08:58:30;102342.56;;;9.51;86.29
19811;BME280;10065;49.632;8.346;2022-11-11T09:00:59;102341.72;;;9.50;86.25
19811;BME280;10065;49.632;8.346;2022-11-11T09:03:30;102342.56;;;9.51;86.44
19811;BME280;10065;49.632;8.346;2022-11-11T09:05:58;102346.34;;;9.61;86.30
19811;BME280;10065;49.632;8.346;2022-11-11T09:08:25;102341.13;;;9.59;86.20
19811;BME280;10065;49.632;8.346;2022-11-11T09:10:53;102349.78;;;9.49;86.71
19811;BME280;10065;49.632;8.346;2022-11-11T09:13:21;102354.88;;;9.52;87.72
19811;BME280;10065;49.632;8.346;2022-11-11T09:15:52;102352.41;;;9.63;87.23
19811;BME280;10065;49.632;8.346;2022-11-11T09:18:20;102344.28;;;9.66;86.47
19811;BME280;10065;49.632;8.346;2022-11-11T09:20:48;102342.16;;;9.71;86.56
19811;BME280;10065;49.632;8.346;2022-11-11T09:23:16;102344.69;;;9.87;85.79
19811;BME280;10065;49.632;8.346;2022-11-11T09:25:43;102344.25;;;9.80;86.45
19811;BME280;10065;49.632;8.346;2022-11-11T09:28:11;102344.69;;;9.87;85.76
19811;BME280;10065;49.632;8.346;2022-11-11T09:30:39;102339.88;;;9.79;86.57
19811;BME280;10065;49.632;8.346;2022-11-11T09:33:07;102351.91;;;9.85;86.58
19811;BME280;10065;49.632;8.346;2022-11-11T09:35:36;102356.13;;;10.01;85.84
19811;BME280;10065;49.632;8.346;2022-11-11T09:38:04;102350.97;;;10.12;85.08
19811;BME280;10065;49.632;8.346;2022-11-11T09:40:43;102356.88;;;10.17;84.67
19811;BME280;10065;49.632;8.346;2022-11-11T09:43:21;102355.31;;;10.13;84.67
19811;BME280;10065;49.632;8.346;2022-11-11T09:46:00;102352.66;;;10.13;85.10
19811;BME280;10065;49.632;8.346;2022-11-11T09:48:40;102350.41;;;10.22;85.32
19811;BME280;10065;49.632;8.346;2022-11-11T09:51:21;102346.44;;;10.41;84.19
19811;BME280;10065;49.632;8.346;2022-11-11T09:53:52;102353.78;;;10.50;83.04
19811;BME280;10065;49.632;8.346;2022-11-11T09:56:23;102347.63;;;10.50;82.57
19811;BME280;10065;49.632;8.346;2022-11-11T09:59:01;102346.16;;;10.46;83.04
19811;BME280;10065;49.632;8.346;2022-11-11T10:01:34;102351.75;;;10.41;83.20
19811;BME280;10065;49.632;8.346;2022-11-11T10:04:12;102346.28;;;10.30;83.87
19811;BME280;10065;49.632;8.346;2022-11-11T10:06:46;102351.31;;;10.35;83.99
19811;BME280;10065;49.632;8.346;2022-11-11T10:09:22;102346.44;;;10.41;83.59
19811;BME280;10065;49.632;8.346;2022-11-11T10:11:56;102342.53;;;10.47;83.53
19811;BME280;10065;49.632;8.346;2022-11-11T10:14:30;102336.06;;;10.51;83.13
19811;BME280;10065;49.632;8.346;2022-11-11T10:17:07;102337.53;;;10.42;83.84
19811;BME280;10065;49.632;8.346;2022-11-11T10:19:44;102324.78;;;10.35;84.06
19811;BME280;10065;49.632;8.346;2022-11-11T10:22:22;102326.69;;;10.33;84.94
19811;BME280;10065;49.632;8.346;2022-11-11T10:25:02;102327.09;;;10.27;85.48
19811;BME280;10065;49.632;8.346;2022-11-11T10:27:33;102325.22;;;10.29;85.88
19811;BME280;10065;49.632;8.346;2022-11-11T10:30:07;102323.88;;;10.22;86.45
19811;BME280;10065;49.632;8.346;2022-11-11T10:32:42;102323.38;;;10.29;86.34
19811;BME280;10065;49.632;8.346;2022-11-11T10:35:15;102317.03;;;10.32;86.00
19811;BME280;10065;49.632;8.346;2022-11-11T10:37:45;102310.78;;;10.33;86.35
19811;BME280;10065;49.632;8.346;2022-11-11T10:40:17;102311.72;;;10.32;86.67
19811;BME280;10065;49.632;8.346;2022-11-11T10:42:48;102313.84;;;10.27;87.85
19811;BME280;10065;49.632;8.346;2022-11-11T10:45:22;102307.84;;;10.37;87.49
19811;BME280;10065;49.632;8.346;2022-11-11T10:47:55;102310.91;;;10.44;86.95
19811;BME280;10065;49.632;8.346;2022-11-11T10:50:31;102316.75;;;10.49;86.60
19811;BME280;10065;49.632;8.346;2022-11-11T10:53:08;102312.00;;;10.54;85.87
19811;BME280;10065;49.632;8.346;2022-11-11T10:55:44;102313.72;;;10.55;86.09
19811;BME280;10065;49.632;8.346;2022-11-11T10:58:18;102318.03;;;10.56;85.84
19811;BME280;10065;49.632;8.346;2022-11-11T11:00:50;102310.06;;;10.56;85.99
19811;BME280;10065;49.632;8.346;2022-11-11T11:03:22;102301.50;;;10.65;85.60
19811;BME280;10065;49.632;8.346;2022-11-11T11:05:53;102303.91;;;10.55;85.27
19811;BME280;10065;49.632;8.346;2022-11-11T11:08:28;102303.91;;;10.55;85.57
19811;BME280;10065;49.632;8.346;2022-11-11T11:10:57;102303.63;;;10.60;85.68
19811;BME280;10065;49.632;8.346;2022-11-11T11:13:30;102300.31;;;10.56;85.74
19811;BME280;10065;49.632;8.346;2022-11-11T11:16:04;102303.72;;;10.59;86.07
19811;BME280;10065;49.632;8.346;2022-11-11T11:18:33;102296.94;;;10.67;85.35
19811;BME280;10065;49.632;8.346;2022-11-11T11:21:08;102293.25;;;10.70;84.86
19811;BME280;10065;49.632;8.346;2022-11-11T11:23:38;102294.09;;;10.70;84.86
19811;BME280;10065;49.632;8.346;2022-11-11T11:26:08;102294.19;;;10.69;84.83
19811;BME280;10065;49.632;8.346;2022-11-11T11:28:52;102294.84;;;10.72;84.67
19811;BME280;10065;49.632;8.346;2022-11-11T11:31:33;102295.78;;;10.71;84.50
19811;BME280;10065;49.632;8.346;2022-11-11T11:34:02;102294.28;;;10.67;84.95
19811;BME280;10065;49.632;8.346;2022-11-11T11:36:30;102287.41;;;10.77;84.25
19811;BME280;10065;49.632;8.346;2022-11-11T11:38:59;102295.38;;;10.77;84.52
19811;BME280;10065;49.632;8.346;2022-11-11T11:41:38;102289.63;;;10.71;85.74
19811;BME280;10065;49.632;8.346;2022-11-11T11:44:24;102287.19;;;10.80;85.26
19811;BME280;10065;49.632;8.346;2022-11-11T11:46:53;102289.53;;;10.85;84.82
19811;BME280;10065;49.632;8.346;2022-11-11T11:49:28;102287.28;;;10.91;84.64
19811;BME280;10065;49.632;8.346;2022-11-11T11:52:06;102290.91;;;11.03;83.98
19811;BME280;10065;49.632;8.346;2022-11-11T11:54:52;102286.34;;;11.05;84.26
19811;BME280;10065;49.632;8.346;2022-11-11T11:57:31;102297.06;;;11.04;84.54
19811;BME280;10065;49.632;8.346;2022-11-11T12:00:04;102283.69;;;10.92;86.04
19811;BME280;10065;49.632;8.346;2022-11-11T12:02:49;102285.19;;;10.97;85.82
19811;BME280;10065;49.632;8.346;2022-11-11T12:05:25;102289.84;;;11.06;85.05
19811;BME280;10065;49.632;8.346;2022-11-11T12:08:08;102290.25;;;11.12;83.96
19811;BME280;10065;49.632;8.346;2022-11-11T12:10:49;102290.81;;;11.05;84.10
19811;BME280;10065;49.632;8.346;2022-11-11T12:13:30;102287.72;;;11.11;84.20
19811;BME280;10065;49.632;8.346;2022-11-11T12:16:11;102295.97;;;11.19;83.64
19811;BME280;10065;49.632;8.346;2022-11-11T12:19:02;102297.91;;;11.17;84.02
19811;BME280;10065;49.632;8.346;2022-11-11T12:21:48;102299.59;;;11.18;84.68
19811;BME280;10065;49.632;8.346;2022-11-11T12:24:30;102301.28;;;11.19;84.65
19811;BME280;10065;49.632;8.346;2022-11-11T12:27:13;102301.28;;;11.19;84.53
19811;BME280;10065;49.632;8.346;2022-11-11T12:29:54;102296.94;;;11.18;84.41
19811;BME280;10065;49.632;8.346;2022-11-11T12:32:39;102307.25;;;11.22;84.19
19811;BME280;10065;49.632;8.346;2022-11-11T12:35:33;102302.44;;;11.27;83.64
19811;BME280;10065;49.632;8.346;2022-11-11T12:38:18;102300.25;;;11.21;83.96
19811;BME280;10065;49.632;8.346;2022-11-11T12:40:54;102303.94;;;11.19;84.67
19811;BME280;10065;49.632;8.346;2022-11-11T12:43:30;102298.22;;;11.12;85.68
19811;BME280;10065;49.632;8.346;2022-11-11T12:46:05;102301.72;;;11.13;86.44
19811;BME280;10065;49.632;8.346;2022-11-11T12:48:51;102311.81;;;11.20;86.21
19811;BME280;10065;49.632;8.346;2022-11-11T12:51:32;102305.97;;;11.28;85.51
19811;BME280;10065;49.632;8.346;2022-11-11T12:54:13;102310.97;;;11.32;85.02
19811;BME280;10065;49.632;8.346;2022-11-11T12:56:48;102316.16;;;11.34;84.86
19811;BME280;10065;49.632;8.346;2022-11-11T12:59:27;102308.91;;;11.36;85.32
19811;BME280;10065;49.632;8.346;2022-11-11T13:02:09;102312.53;;;11.35;85.42
19811;BME280;10065;49.632;8.346;2022-11-11T13:04:50;102303.59;;;11.36;86.06
19811;BME280;10065;49.632;8.346;2022-11-11T13:10:35;102307.00;;;11.38;86.10
19811;BME280;10065;49.632;8.346;2022-11-11T13:13:18;102308.72;;;11.39;86.48
19811;BME280;10065;49.632;8.346;2022-11-11T13:15:53;102312.97;;;11.42;86.02
19811;BME280;10065;49.632;8.346;2022-11-11T13:18:24;102304.66;;;11.46;85.35
19811;BME280;10065;49.632;8.346;2022-11-11T13:20:55;102303.41;;;11.39;86.21
19811;BME280;10065;49.632;8.346;2022-11-11T13:23:24;102304.25;;;11.40;86.27
19811;BME280;10065;49.632;8.346;2022-11-11T13:25:55;102302.13;;;11.32;87.15
19811;BME280;10065;49.632;8.346;2022-11-11T13:28:31;102312.53;;;11.35;86.77
19811;BME280;10065;49.632;8.346;2022-11-11T13:31:09;102305.31;;;11.37;86.67